sensor_id;sensor_type;location;lat;lon;timestamp;P1;durP1;ratioP1;P2;durP2;ratioP2
49015;SDS011;34830;44.064;12.566;2023-02-22T00:01:30;76.47;;;41.30;;
49015;SDS011;34830;44.064;12.566;2023-02-22T00:04:15;65.57;;;38.50;;
49015;SDS011;34830;44.064;12.566;2023-02-22T00:06:45;66.20;;;39.15;;
49015;SDS011;34830;44.064;12.566;2023-02-22T00:09:11;69.43;;;38.05;;
49015;SDS011;34830;44.064;12.566;2023-02-22T00:11:41;77.85;;;39.47;;
49015;SDS011;34830;44.064;12.566;2023-02-22T00:14:11;73.65;;;38.83;;
49015;SDS011;34830;44.064;12.566;2023-02-22T00:16:37;69.50;;;38.90;;
49015;SDS011;34830;44.064;12.566;2023-02-22T00:19:03;74.80;;;40.92;;
49015;SDS011;34830;44.064;12.566;2023-02-22T00:21:30;69.22;;;37.75;;
49015;SDS011;34830;44.064;12.566;2023-02-22T00:23:56;73.15;;;41.10;;
49015;SDS011;34830;44.064;12.566;2023-02-22T00:26:23;73.03;;;40.42;;
49015;SDS011;34830;44.064;12.566;2023-02-22T00:28:50;78.10;;;42.92;;
49015;SDS011;34830;44.064;12.566;2023-02-22T00:31:17;65.90;;;38.33;;
49015;SDS011;34830;44.064;12.566;2023-02-22T00:33:44;77.00;;;40.75;;
49015;SDS011;34830;44.064;12.566;2023-02-22T00:36:10;69.63;;;40.65;;
49015;SDS011;34830;44.064;12.566;2023-02-22T00:38:38;67.63;;;38.38;;
49015;SDS011;34830;44.064;12.566;2023-02-22T00:41:04;74.45;;;42.83;;
49015;SDS011;34830;44.064;12.566;2023-02-22T00:43:30;70.78;;;41.35;;
49015;SDS011;34830;44.064;12.566;2023-02-22T00:45:56;72.10;;;41.17;;
49015;SDS011;34830;44.064;12.566;2023-02-22T00:48:24;70.45;;;41.08;;
49015;SDS011;34830;44.064;12.566;2023-02-22T00:50:51;77.40;;;42.17;;
49015;SDS011;34830;44.064;12.566;2023-02-22T00:53:20;75.18;;;43.03;;
49015;SDS011;34830;44.064;12.566;2023-02-22T00:55:47;70.55;;;41.72;;
49015;SDS011;34830;44.064;12.566;2023-02-22T00:58:13;78.13;;;42.80;;
49015;SDS011;34830;44.064;12.566;2023-02-22T01:00:40;79.13;;;44.88;;
49015;SDS011;34830;44.064;12.566;2023-02-22T01:03:07;74.65;;;42.75;;
49015;SDS011;34830;44.064;12.566;2023-02-22T01:05:35;81.07;;;45.35;;
49015;SDS011;34830;44.064;12.566;2023-02-22T01:08:04;82.90;;;45.63;;
49015;SDS011;34830;44.064;12.566;2023-02-22T01:10:34;78.47;;;43.70;;
49015;SDS011;34830;44.064;12.566;2023-02-22T01:13:00;85.00;;;46.75;;
49015;SDS011;34830;44.064;12.566;2023-02-22T01:15:30;89.97;;;45.67;;
49015;SDS011;34830;44.064;12.566;2023-02-22T01:17:57;89.55;;;47.80;;
49015;SDS011;34830;44.064;12.566;2023-02-22T01:20:24;85.75;;;46.55;;
49015;SDS011;34830;44.064;12.566;2023-02-22T01:22:51;85.50;;;47.40;;
49015;SDS011;34830;44.064;12.566;2023-02-22T01:25:20;84.97;;;45.63;;
49015;SDS011;34830;44.064;12.566;2023-02-22T01:27:47;82.70;;;45.28;;
49015;SDS011;34830;44.064;12.566;2023-02-22T01:30:15;92.00;;;48.97;;
49015;SDS011;34830;44.064;12.566;2023-02-22T01:32:41;81.72;;;45.85;;
49015;SDS011;34830;44.064;12.566;2023-02-22T01:35:09;87.25;;;44.67;;
49015;SDS011;34830;44.064;12.566;2023-02-22T01:37:38;81.95;;;44.63;;
49015;SDS011;34830;44.064;12.566;2023-02-22T01:40:06;81.15;;;43.65;;
49015;SDS011;34830;44.064;12.566;2023-02-22T01:42:33;83.85;;;45.72;;
49015;SDS011;34830;44.064;12.566;2023-02-22T01:50:41;79.15;;;43.58;;
49015;SDS011;34830;44.064;12.566;2023-02-22T01:53:12;83.15;;;44.25;;
49015;SDS011;34830;44.064;12.566;2023-02-22T01:55:41;80.32;;;42.75;;
49015;SDS011;34830;44.064;12.566;2023-02-22T01:58:08;84.70;;;43.55;;
49015;SDS011;34830;44.064;12.566;2023-02-22T02:00:34;69.20;;;39.45;;
49015;SDS011;34830;44.064;12.566;2023-02-22T02:03:01;73.25;;;42.58;;
49015;SDS011;34830;44.064;12.566;2023-02-22T02:05:31;75.03;;;41.50;;
49015;SDS011;34830;44.064;12.566;2023-02-22T02:08:00;75.28;;;40.85;;
49015;SDS011;34830;44.064;12.566;2023-02-22T02:10:44;69.25;;;40.38;;
49015;SDS011;34830;44.064;12.566;2023-02-22T02:13:11;78.32;;;41.08;;
49015;SDS011;34830;44.064;12.566;2023-02-22T02:15:37;78.65;;;41.53;;
49015;SDS011;34830;44.064;12.566;2023-02-22T02:18:05;71.05;;;39.35;;
49015;SDS011;34830;44.064;12.566;2023-02-22T02:36:33;89.57;;;44.95;;
49015;SDS011;34830;44.064;12.566;2023-02-22T02:39:48;88.43;;;47.75;;
49015;SDS011;34830;44.064;12.566;2023-02-22T02:41:55;81.03;;;44.85;;
49015;SDS011;34830;44.064;12.566;2023-02-22T02:44:25;83.80;;;44.97;;
49015;SDS011;34830;44.064;12.566;2023-02-22T02:47:04;89.63;;;48.25;;
49015;SDS011;34830;44.064;12.566;2023-02-22T02:49:41;86.03;;;46.47;;
49015;SDS011;34830;44.064;12.566;2023-02-22T02:52:11;88.75;;;46.58;;
49015;SDS011;34830;44.064;12.566;2023-02-22T02:54:38;87.80;;;47.88;;
49015;SDS011;34830;44.064;12.566;2023-02-22T02:57:04;89.60;;;46.83;;
49015;SDS011;34830;44.064;12.566;2023-02-22T02:59:33;90.50;;;47.35;;
49015;SDS011;34830;44.064;12.566;2023-02-22T03:02:49;90.15;;;46.80;;
49015;SDS011;34830;44.064;12.566;2023-02-22T03:05:18;86.72;;;45.28;;
49015;SDS011;34830;44.064;12.566;2023-02-22T03:11:20;89.22;;;46.38;;
49015;SDS011;34830;44.064;12.566;2023-02-22T03:21:58;86.78;;;47.92;;
49015;SDS011;34830;44.064;12.566;2023-02-22T03:24:30;93.00;;;47.33;;
49015;SDS011;34830;44.064;12.566;2023-02-22T03:27:16;90.13;;;48.63;;
49015;SDS011;34830;44.064;12.566;2023-02-22T03:29:48;88.97;;;45.85;;
49015;SDS011;34830;44.064;12.566;2023-02-22T03:32:20;75.40;;;42.92;;
49015;SDS011;34830;44.064;12.566;2023-02-22T03:34:56;85.63;;;43.95;;
49015;SDS011;34830;44.064;12.566;2023-02-22T03:37:31;87.63;;;46.17;;
49015;SDS011;34830;44.064;12.566;2023-02-22T03:40:00;117.55;;;47.13;;
49015;SDS011;34830;44.064;12.566;2023-02-22T03:42:38;80.80;;;45.22;;
49015;SDS011;34830;44.064;12.566;2023-02-22T03:45:13;83.50;;;41.55;;
49015;SDS011;34830;44.064;12.566;2023-02-22T03:47:42;80.40;;;43.20;;
49015;SDS011;34830;44.064;12.566;2023-02-22T03:50:11;84.65;;;44.58;;
49015;SDS011;34830;44.064;12.566;2023-02-22T03:52:41;87.10;;;44.65;;
49015;SDS011;34830;44.064;12.566;2023-02-22T03:55:12;76.13;;;43.93;;
49015;SDS011;34830;44.064;12.566;2023-02-22T03:57:41;85.63;;;45.15;;
49015;SDS011;34830;44.064;12.566;2023-02-22T04:00:11;81.30;;;45.30;;
49015;SDS011;34830;44.064;12.566;2023-02-22T04:02:39;84.82;;;47.63;;
49015;SDS011;34830;44.064;12.566;2023-02-22T04:05:08;82.53;;;44.55;;
49015;SDS011;34830;44.064;12.566;2023-02-22T04:07:34;78.65;;;42.83;;
49015;SDS011;34830;44.064;12.566;2023-02-22T04:10:00;81.60;;;43.83;;
49015;SDS011;34830;44.064;12.566;2023-02-22T04:12:33;81.68;;;42.28;;
49015;SDS011;34830;44.064;12.566;2023-02-22T04:15:06;81.80;;;44.92;;
49015;SDS011;34830;44.064;12.566;2023-02-22T04:17:34;79.57;;;42.95;;
49015;SDS011;34830;44.064;12.566;2023-02-22T04:20:02;84.38;;;44.78;;
49015;SDS011;34830;44.064;12.566;2023-02-22T04:22:39;75.95;;;42.75;;
49015;SDS011;34830;44.064;12.566;2023-02-22T04:25:06;80.20;;;42.78;;
49015;SDS011;34830;44.064;12.566;2023-02-22T04:27:32;78.70;;;43.15;;
49015;SDS011;34830;44.064;12.566;2023-02-22T04:30:00;81.75;;;43.53;;
49015;SDS011;34830;44.064;12.566;2023-02-22T04:32:26;78.35;;;41.80;;
49015;SDS011;34830;44.064;12.566;2023-02-22T04:34:53;76.43;;;42.55;;
49015;SDS011;34830;44.064;12.566;2023-02-22T04:37:19;79.68;;;43.22;;
49015;SDS011;34830;44.064;12.566;2023-02-22T04:39:45;81.45;;;42.05;;
49015;SDS011;34830;44.064;12.566;2023-02-22T04:42:11;79.68;;;41.30;;
49015;SDS011;34830;44.064;12.566;2023-02-22T04:44:37;75.70;;;41.47;;
49015;SDS011;34830;44.064;12.566;2023-02-22T04:47:04;79.18;;;39.65;;
49015;SDS011;34830;44.064;12.566;2023-02-22T04:49:30;85.60;;;41.58;;
49015;SDS011;34830;44.064;12.566;2023-02-22T04:51:56;81.90;;;40.08;;
49015;SDS011;34830;44.064;12.566;2023-02-22T04:54:29;81.82;;;40.53;;
49015;SDS011;34830;44.064;12.566;2023-02-22T04:56:55;84.55;;;42.47;;
49015;SDS011;34830;44.064;12.566;2023-02-22T04:59:22;75.45;;;40.25;;
49015;SDS011;34830;44.064;12.566;2023-02-22T05:01:54;78.30;;;39.92;;
49015;SDS011;34830;44.064;12.566;2023-02-22T05:04:20;88.43;;;40.20;;
49015;SDS011;34830;44.064;12.566;2023-02-22T05:06:46;93.35;;;41.53;;
49015;SDS011;34830;44.064;12.566;2023-02-22T05:09:13;87.93;;;40.95;;
49015;SDS011;34830;44.064;12.566;2023-02-22T05:11:39;90.25;;;38.67;;
49015;SDS011;34830;44.064;12.566;2023-02-22T05:14:05;80.25;;;38.58;;
49015;SDS011;34830;44.064;12.566;2023-02-22T05:16:31;79.53;;;36.15;;
49015;SDS011;34830;44.064;12.566;2023-02-22T05:18:57;85.38;;;39.47;;
49015;SDS011;34830;44.064;12.566;2023-02-22T05:21:23;90.72;;;40.13;;
49015;SDS011;34830;44.064;12.566;2023-02-22T05:23:49;87.38;;;37.53;;
49015;SDS011;34830;44.064;12.566;2023-02-22T05:26:15;75.65;;;35.00;;
49015;SDS011;34830;44.064;12.566;2023-02-22T05:28:41;75.80;;;35.45;;
49015;SDS011;34830;44.064;12.566;2023-02-22T05:31:07;83.10;;;36.88;;
49015;SDS011;34830;44.064;12.566;2023-02-22T05:33:33;81.40;;;35.67;;
49015;SDS011;34830;44.064;12.566;2023-02-22T05:35:59;79.10;;;35.13;;
49015;SDS011;34830;44.064;12.566;2023-02-22T05:38:25;82.45;;;35.78;;
49015;SDS011;34830;44.064;12.566;2023-02-22T05:40:51;81.75;;;35.63;;
49015;SDS011;34830;44.064;12.566;2023-02-22T05:43:17;93.00;;;38.40;;
49015;SDS011;34830;44.064;12.566;2023-02-22T05:45:43;91.03;;;37.20;;
49015;SDS011;34830;44.064;12.566;2023-02-22T05:48:09;88.07;;;37.97;;
49015;SDS011;34830;44.064;12.566;2023-02-22T05:50:37;94.20;;;38.70;;
49015;SDS011;34830;44.064;12.566;2023-02-22T05:53:03;94.15;;;39.35;;
49015;SDS011;34830;44.064;12.566;2023-02-22T05:55:30;107.10;;;40.15;;
49015;SDS011;34830;44.064;12.566;2023-02-22T05:57:56;104.53;;;42.28;;
49015;SDS011;34830;44.064;12.566;2023-02-22T06:00:23;105.55;;;39.80;;
49015;SDS011;34830;44.064;12.566;2023-02-22T06:02:58;111.93;;;42.53;;
49015;SDS011;34830;44.064;12.566;2023-02-22T06:05:26;96.05;;;40.42;;
49015;SDS011;34830;44.064;12.566;2023-02-22T06:07:53;101.78;;;39.78;;
49015;SDS011;34830;44.064;12.566;2023-02-22T06:10:19;96.90;;;42.65;;
49015;SDS011;34830;44.064;12.566;2023-02-22T06:12:46;101.88;;;41.88;;
49015;SDS011;34830;44.064;12.566;2023-02-22T06:15:13;98.57;;;39.55;;
49015;SDS011;34830;44.064;12.566;2023-02-22T06:17:40;100.65;;;41.63;;
49015;SDS011;34830;44.064;12.566;2023-02-22T06:20:08;106.30;;;40.35;;
49015;SDS011;34830;44.064;12.566;2023-02-22T06:22:35;108.47;;;41.22;;
49015;SDS011;34830;44.064;12.566;2023-02-22T06:25:01;103.75;;;38.90;;
49015;SDS011;34830;44.064;12.566;2023-02-22T06:27:32;103.88;;;40.95;;
49015;SDS011;34830;44.064;12.566;2023-02-22T06:29:59;99.68;;;40.95;;
49015;SDS011;34830;44.064;12.566;2023-02-22T06:32:25;102.22;;;39.80;;
49015;SDS011;34830;44.064;12.566;2023-02-22T06:34:52;98.70;;;40.17;;
49015;SDS011;34830;44.064;12.566;2023-02-22T06:37:18;113.43;;;40.17;;
49015;SDS011;34830;44.064;12.566;2023-02-22T06:39:44;108.75;;;43.90;;
49015;SDS011;34830;44.064;12.566;2023-02-22T06:42:10;111.72;;;41.10;;
49015;SDS011;34830;44.064;12.566;2023-02-22T06:44:36;99.20;;;38.95;;
49015;SDS011;34830;44.064;12.566;2023-02-22T06:47:02;105.25;;;38.53;;
49015;SDS011;34830;44.064;12.566;2023-02-22T06:49:28;110.55;;;41.22;;
49015;SDS011;34830;44.064;12.566;2023-02-22T06:51:54;113.10;;;41.22;;
49015;SDS011;34830;44.064;12.566;2023-02-22T06:54:21;115.22;;;41.63;;
49015;SDS011;34830;44.064;12.566;2023-02-22T06:56:47;115.43;;;41.45;;
49015;SDS011;34830;44.064;12.566;2023-02-22T06:59:14;118.00;;;42.35;;
49015;SDS011;34830;44.064;12.566;2023-02-22T07:01:41;100.53;;;38.88;;
49015;SDS011;34830;44.064;12.566;2023-02-22T07:04:07;100.53;;;38.25;;
49015;SDS011;34830;44.064;12.566;2023-02-22T07:06:34;103.43;;;36.63;;
49015;SDS011;34830;44.064;12.566;2023-02-22T07:09:01;110.13;;;39.58;;
49015;SDS011;34830;44.064;12.566;2023-02-22T07:11:27;102.40;;;37.22;;
49015;SDS011;34830;44.064;12.566;2023-02-22T07:13:54;101.22;;;36.42;;
49015;SDS011;34830;44.064;12.566;2023-02-22T07:16:20;108.13;;;37.40;;
49015;SDS011;34830;44.064;12.566;2023-02-22T07:18:46;104.97;;;36.95;;
49015;SDS011;34830;44.064;12.566;2023-02-22T07:21:12;109.78;;;36.42;;
49015;SDS011;34830;44.064;12.566;2023-02-22T07:23:38;100.85;;;35.58;;
49015;SDS011;34830;44.064;12.566;2023-02-22T07:26:04;104.05;;;37.65;;
49015;SDS011;34830;44.064;12.566;2023-02-22T07:28:30;87.97;;;32.30;;
49015;SDS011;34830;44.064;12.566;2023-02-22T07:30:56;101.65;;;33.72;;
49015;SDS011;34830;44.064;12.566;2023-02-22T07:33:23;100.88;;;34.33;;
49015;SDS011;34830;44.064;12.566;2023-02-22T07:35:49;101.55;;;35.75;;
49015;SDS011;34830;44.064;12.566;2023-02-22T07:38:17;109.97;;;34.70;;
49015;SDS011;34830;44.064;12.566;2023-02-22T07:40:44;102.95;;;36.17;;
49015;SDS011;34830;44.064;12.566;2023-02-22T07:43:15;117.25;;;38.63;;
49015;SDS011;34830;44.064;12.566;2023-02-22T07:45:42;115.95;;;37.03;;
49015;SDS011;34830;44.064;12.566;2023-02-22T07:48:09;118.90;;;38.45;;
49015;SDS011;34830;44.064;12.566;2023-02-22T07:50:37;126.68;;;40.63;;
49015;SDS011;34830;44.064;12.566;2023-02-22T07:53:04;127.45;;;40.50;;
49015;SDS011;34830;44.064;12.566;2023-02-22T07:55:32;115.65;;;38.00;;
49015;SDS011;34830;44.064;12.566;2023-02-22T07:57:59;142.32;;;42.28;;
49015;SDS011;34830;44.064;12.566;2023-02-22T08:00:28;137.02;;;42.70;;
49015;SDS011;34830;44.064;12.566;2023-02-22T08:02:59;140.25;;;42.88;;
49015;SDS011;34830;44.064;12.566;2023-02-22T08:05:26;157.35;;;46.28;;
49015;SDS011;34830;44.064;12.566;2023-02-22T08:07:55;150.02;;;44.80;;
49015;SDS011;34830;44.064;12.566;2023-02-22T08:10:22;135.80;;;44.70;;
49015;SDS011;34830;44.064;12.566;2023-02-22T08:12:49;136.63;;;42.80;;
49015;SDS011;34830;44.064;12.566;2023-02-22T08:15:29;146.90;;;44.35;;
49015;SDS011;34830;44.064;12.566;2023-02-22T08:17:57;144.20;;;44.97;;
49015;SDS011;34830;44.064;12.566;2023-02-22T08:20:25;148.48;;;45.78;;
49015;SDS011;34830;44.064;12.566;2023-02-22T08:22:53;147.90;;;44.97;;
49015;SDS011;34830;44.064;12.566;2023-02-22T08:25:20;140.05;;;44.70;;
49015;SDS011;34830;44.064;12.566;2023-02-22T08:27:47;154.48;;;46.28;;
49015;SDS011;34830;44.064;12.566;2023-02-22T08:30:14;134.32;;;45.95;;
49015;SDS011;34830;44.064;12.566;2023-02-22T08:32:45;137.75;;;42.92;;
49015;SDS011;34830;44.064;12.566;2023-02-22T08:35:12;138.27;;;47.00;;
49015;SDS011;34830;44.064;12.566;2023-02-22T08:37:42;132.18;;;43.35;;
49015;SDS011;34830;44.064;12.566;2023-02-22T08:40:13;138.55;;;43.60;;
49015;SDS011;34830;44.064;12.566;2023-02-22T08:42:42;139.05;;;45.92;;
49015;SDS011;34830;44.064;12.566;2023-02-22T08:45:08;144.43;;;48.05;;
49015;SDS011;34830;44.064;12.566;2023-02-22T08:47:35;131.02;;;44.67;;
49015;SDS011;34830;44.064;12.566;2023-02-22T08:50:01;127.38;;;44.22;;
49015;SDS011;34830;44.064;12.566;2023-02-22T08:52:28;129.23;;;41.58;;
49015;SDS011;34830;44.064;12.566;2023-02-22T08:54:54;125.55;;;42.72;;
49015;SDS011;34830;44.064;12.566;2023-02-22T08:57:20;128.88;;;42.85;;
49015;SDS011;34830;44.064;12.566;2023-02-22T08:59:47;134.00;;;45.28;;
49015;SDS011;34830;44.064;12.566;2023-02-22T09:02:13;114.75;;;38.75;;
49015;SDS011;34830;44.064;12.566;2023-02-22T09:04:40;110.70;;;38.92;;
49015;SDS011;34830;44.064;12.566;2023-02-22T09:07:06;130.48;;;43.30;;
49015;SDS011;34830;44.064;12.566;2023-02-22T09:09:33;120.05;;;42.28;;
49015;SDS011;34830;44.064;12.566;2023-02-22T09:12:00;116.47;;;41.50;;
49015;SDS011;34830;44.064;12.566;2023-02-22T09:14:26;98.88;;;36.28;;
49015;SDS011;34830;44.064;12.566;2023-02-22T09:16:52;112.65;;;40.17;;
49015;SDS011;34830;44.064;12.566;2023-02-22T09:19:19;98.38;;;35.55;;
49015;SDS011;34830;44.064;12.566;2023-02-22T09:21:50;102.78;;;38.38;;
49015;SDS011;34830;44.064;12.566;2023-02-22T09:24:17;106.32;;;39.10;;
49015;SDS011;34830;44.064;12.566;2023-02-22T09:26:45;102.32;;;37.13;;
49015;SDS011;34830;44.064;12.566;2023-02-22T09:29:12;102.97;;;37.88;;
49015;SDS011;34830;44.064;12.566;2023-02-22T09:31:38;101.15;;;39.28;;
49015;SDS011;34830;44.064;12.566;2023-02-22T09:34:05;107.28;;;38.80;;
49015;SDS011;34830;44.064;12.566;2023-02-22T09:36:45;106.93;;;40.58;;
49015;SDS011;34830;44.064;12.566;2023-02-22T09:39:12;99.25;;;38.47;;
49015;SDS011;34830;44.064;12.566;2023-02-22T09:47:07;106.63;;;41.30;;
49015;SDS011;34830;44.064;12.566;2023-02-22T09:49:39;103.93;;;41.45;;
49015;SDS011;34830;44.064;12.566;2023-02-22T09:52:16;111.07;;;41.22;;
49015;SDS011;34830;44.064;12.566;2023-02-22T09:54:47;104.78;;;41.08;;
49015;SDS011;34830;44.064;12.566;2023-02-22T09:57:24;111.78;;;40.83;;
49015;SDS011;34830;44.064;12.566;2023-02-22T10:00:02;110.35;;;42.80;;
49015;SDS011;34830;44.064;12.566;2023-02-22T10:05:28;160.25;;;52.92;;
49015;SDS011;34830;44.064;12.566;2023-02-22T10:07:59;164.65;;;52.97;;
49015;SDS011;34830;44.064;12.566;2023-02-22T10:10:34;179.00;;;56.95;;
49015;SDS011;34830;44.064;12.566;2023-02-22T10:16:25;173.82;;;55.90;;
49015;SDS011;34830;44.064;12.566;2023-02-22T10:22:25;181.60;;;58.47;;
49015;SDS011;34830;44.064;12.566;2023-02-22T10:25:00;184.40;;;61.92;;
49015;SDS011;34830;44.064;12.566;2023-02-22T10:27:34;159.15;;;52.28;;
49015;SDS011;34830;44.064;12.566;2023-02-22T10:32:34;183.55;;;59.58;;
49015;SDS011;34830;44.064;12.566;2023-02-22T10:35:19;167.60;;;56.03;;
49015;SDS011;34830;44.064;12.566;2023-02-22T10:37:55;184.80;;;57.50;;
49015;SDS011;34830;44.064;12.566;2023-02-22T10:40:24;183.00;;;59.80;;
49015;SDS011;34830;44.064;12.566;2023-02-22T10:42:57;203.35;;;63.97;;
49015;SDS011;34830;44.064;12.566;2023-02-22T10:45:26;170.10;;;58.13;;
49015;SDS011;34830;44.064;12.566;2023-02-22T10:50:28;217.57;;;69.68;;
49015;SDS011;34830;44.064;12.566;2023-02-22T10:52:55;211.43;;;68.40;;
49015;SDS011;34830;44.064;12.566;2023-02-22T10:55:21;195.73;;;64.70;;
49015;SDS011;34830;44.064;12.566;2023-02-22T10:57:48;196.25;;;61.55;;
49015;SDS011;34830;44.064;12.566;2023-02-22T11:02:55;182.38;;;59.55;;
49015;SDS011;34830;44.064;12.566;2023-02-22T11:05:32;192.95;;;60.80;;
49015;SDS011;34830;44.064;12.566;2023-02-22T11:08:23;191.40;;;61.97;;
49015;SDS011;34830;44.064;12.566;2023-02-22T11:10:55;200.60;;;63.08;;
49015;SDS011;34830;44.064;12.566;2023-02-22T11:15:53;200.38;;;64.78;;
49015;SDS011;34830;44.064;12.566;2023-02-22T11:18:21;158.95;;;54.85;;
49015;SDS011;34830;44.064;12.566;2023-02-22T11:20:57;165.27;;;60.30;;
49015;SDS011;34830;44.064;12.566;2023-02-22T11:23:24;144.80;;;53.20;;
49015;SDS011;34830;44.064;12.566;2023-02-22T11:25:50;136.20;;;49.70;;
49015;SDS011;34830;44.064;12.566;2023-02-22T11:28:27;130.20;;;47.58;;
49015;SDS011;34830;44.064;12.566;2023-02-22T11:31:18;149.18;;;52.83;;
49015;SDS011;34830;44.064;12.566;2023-02-22T11:33:48;140.93;;;50.47;;
49015;SDS011;34830;44.064;12.566;2023-02-22T11:36:34;126.28;;;47.97;;
49015;SDS011;34830;44.064;12.566;2023-02-22T11:39:38;116.60;;;44.22;;
49015;SDS011;34830;44.064;12.566;2023-02-22T11:42:13;122.65;;;47.40;;
49015;SDS011;34830;44.064;12.566;2023-02-22T11:44:48;114.88;;;45.78;;
49015;SDS011;34830;44.064;12.566;2023-02-22T11:47:14;114.82;;;45.10;;
49015;SDS011;34830;44.064;12.566;2023-02-22T11:49:43;112.25;;;44.03;;
49015;SDS011;34830;44.064;12.566;2023-02-22T11:54:57;103.70;;;42.17;;
49015;SDS011;34830;44.064;12.566;2023-02-22T12:21:55;73.70;;;32.88;;
49015;SDS011;34830;44.064;12.566;2023-02-22T12:24:26;89.20;;;35.63;;
49015;SDS011;34830;44.064;12.566;2023-02-22T12:27:02;85.50;;;34.13;;
49015;SDS011;34830;44.064;12.566;2023-02-22T12:29:42;99.82;;;37.35;;
49015;SDS011;34830;44.064;12.566;2023-02-22T12:35:29;107.57;;;40.70;;
49015;SDS011;34830;44.064;12.566;2023-02-22T12:37:52;93.88;;;36.25;;
49015;SDS011;34830;44.064;12.566;2023-02-22T12:40:26;105.03;;;42.17;;
49015;SDS011;34830;44.064;12.566;2023-02-22T12:55:55;84.50;;;36.78;;
49015;SDS011;34830;44.064;12.566;2023-02-22T13:01:00;57.55;;;26.63;;
49015;SDS011;34830;44.064;12.566;2023-02-22T13:06:24;71.30;;;30.05;;
49015;SDS011;34830;44.064;12.566;2023-02-22T13:11:40;77.82;;;34.00;;
49015;SDS011;34830;44.064;12.566;2023-02-22T13:25:01;52.63;;;25.00;;
49015;SDS011;34830;44.064;12.566;2023-02-22T13:27:37;53.25;;;25.98;;
49015;SDS011;34830;44.064;12.566;2023-02-22T13:30:14;63.08;;;27.33;;
49015;SDS011;34830;44.064;12.566;2023-02-22T13:33:08;60.85;;;27.23;;
49015;SDS011;34830;44.064;12.566;2023-02-22T13:49:28;45.45;;;19.48;;
49015;SDS011;34830;44.064;12.566;2023-02-22T13:52:20;47.13;;;18.05;;
49015;SDS011;34830;44.064;12.566;2023-02-22T13:54:50;42.90;;;18.73;;
49015;SDS011;34830;44.064;12.566;2023-02-22T13:57:21;37.50;;;17.10;;
49015;SDS011;34830;44.064;12.566;2023-02-22T14:00:07;37.67;;;17.35;;
49015;SDS011;34830;44.064;12.566;2023-02-22T14:11:02;25.02;;;12.80;;
49015;SDS011;34830;44.064;12.566;2023-02-22T14:14:05;35.13;;;16.15;;
49015;SDS011;34830;44.064;12.566;2023-02-22T14:16:25;27.05;;;13.25;;
49015;SDS011;34830;44.064;12.566;2023-02-22T14:19:00;27.30;;;14.23;;
49015;SDS011;34830;44.064;12.566;2023-02-22T14:27:09;37.05;;;17.15;;
49015;SDS011;34830;44.064;12.566;2023-02-22T14:29:36;42.05;;;16.52;;
49015;SDS011;34830;44.064;12.566;2023-02-22T14:32:08;38.50;;;17.35;;
49015;SDS011;34830;44.064;12.566;2023-02-22T14:37:26;40.15;;;15.95;;
49015;SDS011;34830;44.064;12.566;2023-02-22T14:39:58;39.45;;;17.70;;
49015;SDS011;34830;44.064;12.566;2023-02-22T14:42:38;36.60;;;17.02;;
49015;SDS011;34830;44.064;12.566;2023-02-22T14:47:36;43.25;;;17.65;;
49015;SDS011;34830;44.064;12.566;2023-02-22T14:50:07;38.80;;;17.60;;
49015;SDS011;34830;44.064;12.566;2023-02-22T14:52:39;38.75;;;17.63;;
49015;SDS011;34830;44.064;12.566;2023-02-22T14:57:45;42.17;;;18.27;;
49015;SDS011;34830;44.064;12.566;2023-02-22T15:00:37;40.65;;;17.80;;
49015;SDS011;34830;44.064;12.566;2023-02-22T15:06:03;45.72;;;17.52;;
49015;SDS011;34830;44.064;12.566;2023-02-22T15:08:29;37.00;;;16.98;;
49015;SDS011;34830;44.064;12.566;2023-02-22T15:10:56;41.05;;;18.10;;
49015;SDS011;34830;44.064;12.566;2023-02-22T15:13:24;41.63;;;17.80;;
49015;SDS011;34830;44.064;12.566;2023-02-22T15:15:58;42.45;;;17.73;;
49015;SDS011;34830;44.064;12.566;2023-02-22T15:18:27;41.78;;;19.02;;
49015;SDS011;34830;44.064;12.566;2023-02-22T15:21:01;44.35;;;19.02;;
49015;SDS011;34830;44.064;12.566;2023-02-22T15:23:37;44.85;;;18.60;;
49015;SDS011;34830;44.064;12.566;2023-02-22T15:26:06;51.80;;;19.15;;
49015;SDS011;34830;44.064;12.566;2023-02-22T15:28:33;47.78;;;19.20;;
49015;SDS011;34830;44.064;12.566;2023-02-22T15:31:14;51.38;;;20.00;;
49015;SDS011;34830;44.064;12.566;2023-02-22T15:33:41;52.00;;;20.75;;
49015;SDS011;34830;44.064;12.566;2023-02-22T15:36:11;54.25;;;21.35;;
49015;SDS011;34830;44.064;12.566;2023-02-22T15:38:39;60.70;;;23.95;;
49015;SDS011;34830;44.064;12.566;2023-02-22T15:41:05;57.35;;;22.35;;
49015;SDS011;34830;44.064;12.566;2023-02-22T15:43:33;67.88;;;24.08;;
49015;SDS011;34830;44.064;12.566;2023-02-22T15:45:59;50.05;;;21.73;;
49015;SDS011;34830;44.064;12.566;2023-02-22T15:48:26;53.22;;;21.38;;
49015;SDS011;34830;44.064;12.566;2023-02-22T15:51:11;53.45;;;22.38;;
49015;SDS011;34830;44.064;12.566;2023-02-22T15:53:39;63.17;;;23.95;;
49015;SDS011;34830;44.064;12.566;2023-02-22T15:56:08;57.42;;;24.40;;
49015;SDS011;34830;44.064;12.566;2023-02-22T15:58:35;59.35;;;22.48;;
49015;SDS011;34830;44.064;12.566;2023-02-22T16:01:11;57.95;;;22.75;;
49015;SDS011;34830;44.064;12.566;2023-02-22T16:03:45;59.13;;;24.30;;
49015;SDS011;34830;44.064;12.566;2023-02-22T16:09:00;62.30;;;22.83;;
49015;SDS011;34830;44.064;12.566;2023-02-22T16:11:36;83.28;;;27.23;;
49015;SDS011;34830;44.064;12.566;2023-02-22T16:14:24;77.82;;;26.33;;
49015;SDS011;34830;44.064;12.566;2023-02-22T16:19:49;79.22;;;26.67;;
49015;SDS011;34830;44.064;12.566;2023-02-22T16:22:28;74.30;;;25.02;;
49015;SDS011;34830;44.064;12.566;2023-02-22T16:24:54;76.72;;;26.13;;
49015;SDS011;34830;44.064;12.566;2023-02-22T16:27:52;75.13;;;25.67;;
49015;SDS011;34830;44.064;12.566;2023-02-22T16:30:30;78.00;;;26.33;;
49015;SDS011;34830;44.064;12.566;2023-02-22T16:33:04;79.53;;;24.80;;
49015;SDS011;34830;44.064;12.566;2023-02-22T16:35:41;74.60;;;25.85;;
49015;SDS011;34830;44.064;12.566;2023-02-22T16:38:16;68.05;;;23.63;;
49015;SDS011;34830;44.064;12.566;2023-02-22T16:40:47;73.88;;;26.10;;
49015;SDS011;34830;44.064;12.566;2023-02-22T16:43:18;74.10;;;23.23;;
49015;SDS011;34830;44.064;12.566;2023-02-22T16:45:46;75.22;;;25.80;;
49015;SDS011;34830;44.064;12.566;2023-02-22T16:48:16;73.15;;;24.85;;
49015;SDS011;34830;44.064;12.566;2023-02-22T16:50:44;83.65;;;26.08;;
49015;SDS011;34830;44.064;12.566;2023-02-22T16:53:11;72.78;;;26.02;;
49015;SDS011;34830;44.064;12.566;2023-02-22T16:55:40;80.55;;;25.45;;
49015;SDS011;34830;44.064;12.566;2023-02-22T16:58:09;78.97;;;27.08;;
49015;SDS011;34830;44.064;12.566;2023-02-22T17:00:37;72.88;;;24.75;;
49015;SDS011;34830;44.064;12.566;2023-02-22T17:03:03;78.78;;;24.30;;
49015;SDS011;34830;44.064;12.566;2023-02-22T17:06:01;84.90;;;26.67;;